Time;durP1;ratioP1;P1;durP2;ratioP2;P2;SDS_P1;SDS_P2;PMS_P1;PMS_P2;Temp;Humidity;BMP_temperature;BMP_pressure;BME280_temperature;BME280_humidity;BME280_pressure;Samples;Min_cycle;Max_cycle;Signal;HPM_P1;HPM_P2
2023/05/02 00:00:08;;;;;;;0.68;0.50;;;;;;;14.20;100.00;93999.88;5015525;28;20036;-90
2023/05/02 00:02:33;;;;;;;1.15;0.60;;;;;;;14.14;100.00;94001.84;5015633;28;20026;-90
2023/05/02 00:04:58;;;;;;;2.05;0.50;;;;;;;13.91;100.00;93995.78;5015786;28;20049;-90
2023/05/02 00:07:25;;;;;;;0.90;0.50;;;;;;;14.39;100.00;93997.06;4999334;28;20025;-89
2023/05/02 00:09:51;;;;;;;0.40;0.40;;;;;;;14.04;100.00;93994.16;5015881;28;20033;-88
2023/05/02 00:12:16;;;;;;;1.00;0.68;;;;;;;14.27;100.00;93992.31;4999990;28;20022;-91
2023/05/02 00:14:41;;;;;;;0.77;0.70;;;;;;;14.19;100.00;93993.06;5015416;28;20149;-89
2023/05/02 00:17:07;;;;;;;0.80;0.80;;;;;;;14.02;100.00;93989.22;4999526;28;20440;-89
2023/05/02 00:19:37;;;;;;;0.80;0.73;;;;;;;14.41;100.00;93976.47;5015804;28;20030;-89
2023/05/02 00:22:03;;;;;;;1.52;0.75;;;;;;;13.84;100.00;93980.38;5015750;28;20057;-90
2023/05/02 00:24:28;;;;;;;0.60;0.60;;;;;;;14.48;100.00;93982.06;5015382;28;20025;-90
2023/05/02 00:26:53;;;;;;;1.00;0.90;;;;;;;14.66;100.00;93980.31;4999266;28;20128;-88
2023/05/02 00:29:19;;;;;;;3.45;1.20;;;;;;;14.50;100.00;93973.88;5015406;28;20335;-90
2023/05/02 00:31:45;;;;;;;1.00;0.80;;;;;;;14.68;100.00;93972.13;5015329;28;20018;-90
2023/05/02 00:34:10;;;;;;;4.53;1.00;;;;;;;14.79;100.00;93972.66;5015298;28;20029;-89
2023/05/02 00:36:36;;;;;;;4.88;1.08;;;;;;;14.54;100.00;93966.91;5016724;28;20032;-91
2023/05/02 00:39:01;;;;;;;0.75;0.75;;;;;;;13.92;100.00;93965.75;5015162;28;20387;-89
2023/05/02 00:41:26;;;;;;;1.02;0.80;;;;;;;14.39;100.00;93960.19;4999316;28;20030;-89
2023/05/02 00:43:52;;;;;;;1.05;0.85;;;;;;;14.62;100.00;93957.50;4999300;28;20056;-90
2023/05/02 00:46:17;;;;;;;0.80;0.73;;;;;;;14.31;100.00;93955.63;5002571;28;20022;-90
2023/05/02 00:48:44;;;;;;;0.98;0.80;;;;;;;14.41;100.00;93956.16;5002559;28;20072;-89
2023/05/02 00:51:11;;;;;;;1.40;0.70;;;;;;;14.41;100.00;93956.16;5018745;28;20018;-91
2023/05/02 00:53:36;;;;;;;4.20;0.70;;;;;;;14.19;100.00;93949.03;5002800;28;20454;-90
2023/05/02 00:56:02;;;;;;;0.82;0.80;;;;;;;14.75;100.00;93942.72;5018730;28;20026;-89
2023/05/02 00:58:28;;;;;;;0.90;0.80;;;;;;;14.80;100.00;93946.00;5018769;28;20025;-90
2023/05/02 01:01:21;;;;;;;1.20;0.90;;;;;;;14.42;100.00;93946.41;5019677;28;20112;-89
2023/05/02 01:03:58;;;;;;;0.97;0.80;;;;;;;15.19;100.00;93946.28;5018571;28;20030;-90
2023/05/02 01:06:30;;;;;;;2.58;1.20;;;;;;;15.26;100.00;93940.56;5018927;28;20030;-91
2023/05/02 01:09:17;;;;;;;2.45;2.10;;;;;;;15.33;100.00;93938.25;5018766;28;20040;-89
2023/05/02 01:11:56;;;;;;;2.38;2.08;;;;;;;14.93;100.00;93933.78;5019576;28;20413;-91
2023/05/02 01:14:21;;;;;;;1.90;1.60;;;;;;;14.44;100.00;93927.66;5018494;28;20026;-89
2023/05/02 01:16:47;;;;;;;2.15;1.42;;;;;;;14.75;100.00;93925.03;5018560;28;20375;-90
2023/05/02 01:19:25;;;;;;;1.80;1.58;;;;;;;14.68;100.00;93927.31;5001801;28;20436;-89
2023/05/02 01:21:52;;;;;;;2.17;1.88;;;;;;;14.15;100.00;93929.66;5018443;28;20424;-89
2023/05/02 01:24:33;;;;;;;2.22;2.03;;;;;;;14.46;100.00;93931.53;5002310;28;20022;-88
2023/05/02 01:27:22;;;;;;;2.33;1.83;;;;;;;14.16;100.00;93925.16;5027600;27;1330589;-91
2023/05/02 01:29:51;;;;;;;2.97;2.13;;;;;;;14.32;100.00;93928.19;5019998;28;20033;-92
2023/05/02 01:32:20;;;;;;;2.10;1.90;;;;;;;14.83;100.00;93919.00;5019777;28;20025;-91
2023/05/02 01:34:46;;;;;;;2.22;2.03;;;;;;;14.47;100.00;93919.91;5019828;28;20114;-91
2023/05/02 01:37:19;;;;;;;2.75;2.17;;;;;;;14.94;100.00;93918.75;5036281;28;20036;-90
2023/05/02 01:39:46;;;;;;;4.43;2.30;;;;;;;14.19;100.00;93925.31;5035885;28;20065;-90
2023/05/02 01:42:12;;;;;;;2.55;2.22;;;;;;;14.21;100.00;93920.56;5019983;28;20431;-90
2023/05/02 01:44:39;;;;;;;2.65;1.67;;;;;;;14.33;100.00;93911.31;5019845;28;20029;-89
2023/05/02 01:47:06;;;;;;;2.17;1.90;;;;;;;14.66;100.00;93909.13;5019973;28;20033;-90
2023/05/02 01:49:32;;;;;;;4.70;1.63;;;;;;;14.54;100.00;93917.63;5035861;28;20469;-90
2023/05/02 01:52:03;;;;;;;1.50;1.40;;;;;;;14.25;100.00;93908.31;5019716;28;20029;-89
2023/05/02 01:54:30;;;;;;;1.20;1.10;;;;;;;13.83;100.00;93915.66;5019238;28;20030;-90
2023/05/02 01:56:55;;;;;;;2.92;1.02;;;;;;;17.84;100.00;93913.94;5019755;28;20043;-91
2023/05/02 01:59:22;;;;;;;2.13;0.70;;;;;;;18.28;100.00;93905.63;5019802;28;20029;-90
2023/05/02 02:01:49;;;;;;;1.00;0.90;;;;;;;17.57;100.00;93911.47;5019591;28;20025;-91
2023/05/02 02:04:15;;;;;;;0.63;0.63;;;;;;;17.50;100.00;93903.25;5036152;28;20033;-92
2023/05/02 02:06:45;;;;;;;1.00;0.90;;;;;;;18.14;100.00;93896.09;5019419;28;20068;-90
2023/05/02 02:09:10;;;;;;;0.60;0.60;;;;;;;18.18;100.00;93899.63;5019339;28;20082;-91
2023/05/02 02:11:43;;;;;;;0.57;0.57;;;;;;;18.14;96.80;93890.00;5019486;28;20370;-90
2023/05/02 02:14:16;;;;;;;0.60;0.60;;;;;;;18.46;96.87;93896.38;5035655;28;20489;-90
2023/05/02 02:16:42;;;;;;;0.60;0.60;;;;;;;17.60;100.00;93891.53;5019462;28;20061;-90
2023/05/02 02:19:10;;;;;;;1.88;0.52;;;;;;;18.06;100.00;93892.41;5019169;28;20025;-91
2023/05/02 02:21:37;;;;;;;0.77;0.70;;;;;;;17.08;100.00;93886.25;5019241;28;20029;-90
2023/05/02 02:24:04;;;;;;;1.05;0.85;;;;;;;17.33;100.00;93881.09;5019151;28;20025;-90
2023/05/02 02:26:31;;;;;;;1.27;1.00;;;;;;;16.72;100.00;93889.34;5018819;28;20033;-90
2023/05/02 02:28:56;;;;;;;1.00;0.80;;;;;;;16.58;100.00;93878.97;5018884;28;20346;-91
2023/05/02 02:31:24;;;;;;;2.22;1.30;;;;;;;17.02;100.00;93876.16;5018973;28;20021;-90
2023/05/02 02:33:49;;;;;;;2.25;1.00;;;;;;;16.89;100.00;93872.59;5019307;28;20088;-90
2023/05/02 02:36:24;;;;;;;1.08;0.98;;;;;;;16.79;100.00;93874.53;5035250;28;20025;-90
2023/05/02 02:38:59;;;;;;;1.25;1.13;;;;;;;16.71;100.00;93869.25;5005347;28;20458;-91
2023/05/02 02:41:29;;;;;;;1.10;1.00;;;;;;;16.36;100.00;93864.91;5006873;28;20025;-91
2023/05/02 02:44:01;;;;;;;1.10;0.98;;;;;;;16.78;100.00;93870.31;5022194;28;20441;-91
2023/05/02 02:46:49;;;;;;;3.40;0.75;;;;;;;15.85;100.00;93870.72;5039322;28;20443;-91
2023/05/02 02:49:30;;;;;;;1.15;0.90;;;;;;;17.18;100.00;93869.22;5005607;28;20330;-91
2023/05/02 02:52:12;;;;;;;1.13;0.80;;;;;;;17.17;100.00;93872.97;5039654;28;20052;-89
2023/05/02 02:54:51;;;;;;;2.85;0.90;;;;;;;16.86;100.00;93879.34;5006071;28;20021;-91
2023/05/02 02:58:06;;;;;;;0.60;0.60;;;;;;;16.16;100.00;93867.13;5021384;28;20025;-91
2023/05/02 03:00:32;;;;;;;5.55;1.13;;;;;;;16.55;100.00;93875.09;5005540;28;20083;-91
2023/05/02 03:02:57;;;;;;;0.55;0.55;;;;;;;15.79;100.00;93879.91;5005184;28;20021;-91
2023/05/02 03:05:23;;;;;;;0.57;0.55;;;;;;;16.02;100.00;93874.44;5005637;28;20025;-90
2023/05/02 03:07:52;;;;;;;0.47;0.47;;;;;;;16.03;100.00;93871.50;5005317;28;20462;-90
2023/05/02 03:10:18;;;;;;;0.47;0.40;;;;;;;16.16;100.00;93866.34;5021804;28;20032;-90
2023/05/02 03:12:43;;;;;;;2.72;0.80;;;;;;;16.04;100.00;93867.78;5005524;28;20604;-91
2023/05/02 03:15:50;;;;;;;0.60;0.60;;;;;;;16.61;100.00;93867.75;5004844;28;20076;-91
2023/05/02 03:18:19;;;;;;;0.98;0.75;;;;;;;16.38;100.00;93870.66;5009731;28;20029;-91
2023/05/02 03:20:44;;;;;;;0.98;0.65;;;;;;;16.24;100.00;93881.41;5005053;28;20504;-92
2023/05/02 03:23:09;;;;;;;0.68;0.68;;;;;;;16.01;100.00;93878.97;5005363;28;20030;-90
2023/05/02 03:25:35;;;;;;;0.95;0.80;;;;;;;15.77;100.00;93880.19;5021276;28;20493;-90
2023/05/02 03:28:01;;;;;;;0.80;0.80;;;;;;;15.75;100.00;93889.50;5005359;28;20025;-91
2023/05/02 03:30:26;;;;;;;0.70;0.68;;;;;;;15.68;100.00;93885.47;5021186;28;20485;-92
2023/05/02 03:32:52;;;;;;;0.68;0.60;;;;;;;16.14;100.00;93884.38;5004537;28;20129;-90
2023/05/02 03:35:17;;;;;;;0.50;0.50;;;;;;;15.88;100.00;93880.66;5021347;28;20032;-91
2023/05/02 03:37:43;;;;;;;0.90;0.55;;;;;;;16.33;100.00;93884.81;5004835;28;20377;-92
2023/05/02 03:40:09;;;;;;;0.75;0.60;;;;;;;15.41;100.00;93891.81;5005061;28;20033;-91
2023/05/02 03:42:40;;;;;;;0.50;0.50;;;;;;;15.45;100.00;93887.50;5004800;28;20088;-90
2023/05/02 03:45:07;;;;;;;0.63;0.63;;;;;;;15.92;100.00;93889.56;5005481;28;20025;-91
2023/05/02 03:47:32;;;;;;;1.05;0.57;;;;;;;16.11;100.00;93897.13;5004762;28;20133;-91
2023/05/02 03:49:58;;;;;;;1.20;1.10;;;;;;;15.36;100.00;93898.06;5019842;28;20026;-90
2023/05/02 03:52:24;;;;;;;1.40;1.30;;;;;;;15.68;100.00;93888.13;5004240;28;20037;-91
2023/05/02 03:54:49;;;;;;;1.38;1.10;;;;;;;15.18;100.00;93893.81;5020620;28;20112;-90
2023/05/02 03:57:29;;;;;;;1.42;1.30;;;;;;;16.22;100.00;93897.59;5004482;28;20049;-91
2023/05/02 03:59:55;;;;;;;3.58;1.33;;;;;;;15.62;100.00;93907.84;5038081;28;20488;-91
2023/05/02 04:02:20;;;;;;;1.40;1.30;;;;;;;16.02;100.00;93896.38;5003902;28;20033;-90
2023/05/02 04:04:46;;;;;;;1.10;1.00;;;;;;;16.29;100.00;93906.88;5004370;28;20087;-91
2023/05/02 04:07:17;;;;;;;2.00;1.40;;;;;;;16.19;100.00;93915.94;5020407;28;20053;-91
2023/05/02 04:09:42;;;;;;;1.33;1.23;;;;;;;15.73;100.00;93918.09;5004964;28;20051;-90
2023/05/02 04:12:08;;;;;;;1.30;1.20;;;;;;;16.06;100.00;93915.78;5004070;28;20124;-90
2023/05/02 04:14:33;;;;;;;1.92;1.35;;;;;;;16.13;100.00;93919.81;5001115;28;20203;-91
2023/05/02 04:16:58;;;;;;;3.17;1.42;;;;;;;16.05;100.00;93924.00;4984432;28;20018;-91
2023/05/02 04:19:24;;;;;;;1.50;1.40;;;;;;;15.54;100.00;93914.66;4999494;28;20029;-91
2023/05/02 04:21:50;;;;;;;2.35;1.50;;;;;;;16.20;100.00;93922.78;5020339;28;20025;-90
2023/05/02 04:24:15;;;;;;;2.53;1.90;;;;;;;16.08;100.00;93923.41;5020072;28;20029;-91
2023/05/02 04:27:18;;;;;;;3.08;1.88;;;;;;;15.92;100.00;93925.75;5020202;28;20449;-90
2023/05/02 04:29:47;;;;;;;2.38;1.83;;;;;;;16.43;100.00;93939.19;5037385;28;20323;-91
2023/05/02 04:32:13;;;;;;;1.38;1.10;;;;;;;15.46;100.00;93933.13;4995035;28;20472;-89
2023/05/02 04:34:38;;;;;;;1.60;1.08;;;;;;;15.87;100.00;93947.78;5000470;28;20030;-90
2023/05/02 04:37:20;;;;;;;3.05;0.90;;;;;;;16.10;100.00;93939.72;5017493;28;20451;-89
2023/05/02 04:39:45;;;;;;;5.07;0.70;;;;;;;16.83;100.00;93943.44;4984192;28;20325;-90
2023/05/02 04:42:11;;;;;;;0.98;0.43;;;;;;;17.02;100.00;93944.97;4983630;28;20033;-90
2023/05/02 04:44:36;;;;;;;1.48;0.70;;;;;;;16.61;100.00;93955.03;4999938;28;20394;-89
2023/05/02 04:47:03;;;;;;;4.03;0.40;;;;;;;16.57;100.00;93972.63;4984142;28;20088;-90
2023/05/02 04:49:29;;;;;;;0.50;0.50;;;;;;;15.92;100.00;93968.00;4983893;28;20026;-89
2023/05/02 04:51:54;;;;;;;2.78;0.60;;;;;;;15.73;100.00;93973.56;5000388;28;20033;-92
2023/05/02 04:54:20;;;;;;;1.38;1.05;;;;;;;16.13;100.00;93973.44;4984029;28;20121;-92
2023/05/02 04:56:45;;;;;;;1.80;1.00;;;;;;;16.23;100.00;93982.94;4999900;28;20076;-90
2023/05/02 04:59:10;;;;;;;0.70;0.63;;;;;;;16.82;100.00;93985.00;4984162;28;20029;-90
2023/05/02 05:01:36;;;;;;;1.75;1.10;;;;;;;16.64;100.00;93992.22;5018816;28;20029;-90
2023/05/02 05:04:02;;;;;;;0.30;0.30;;;;;;;16.15;100.00;93997.69;5002941;28;20059;-90
2023/05/02 05:09:52;;;;;;;1.77;0.50;;;;;;;16.17;100.00;93998.16;5037242;28;20033;-93
2023/05/02 05:12:18;;;;;;;1.05;0.40;;;;;;;16.16;100.00;94012.47;5003273;28;20061;-93
2023/05/02 05:14:44;;;;;;;1.90;0.50;;;;;;;16.31;100.00;94023.66;5003565;28;20320;-93
2023/05/02 05:17:09;;;;;;;0.40;0.40;;;;;;;15.97;100.00;94025.97;5003558;28;20067;-93
2023/05/02 05:19:35;;;;;;;1.27;0.70;;;;;;;16.45;100.00;94029.56;5003456;28;20028;-92
2023/05/02 05:22:00;;;;;;;1.80;0.70;;;;;;;16.14;100.00;94037.63;5003451;28;20079;-93
2023/05/02 05:24:25;;;;;;;4.97;0.75;;;;;;;16.02;100.00;94033.78;5003744;28;20025;-92
2023/05/02 05:26:51;;;;;;;2.03;0.50;;;;;;;16.22;100.00;94040.31;5003112;28;20033;-91
2023/05/02 05:29:17;;;;;;;1.52;0.60;;;;;;;15.64;100.00;94035.06;5002883;28;20028;-92
2023/05/02 05:31:43;;;;;;;9.52;1.13;;;;;;;15.53;100.00;94039.06;5003578;28;20328;-93
2023/05/02 05:34:08;;;;;;;1.08;0.73;;;;;;;16.23;100.00;94049.00;5003432;28;20055;-92
2023/05/02 05:36:34;;;;;;;1.30;1.10;;;;;;;16.36;100.00;94052.59;5003292;28;20022;-94
2023/05/02 05:39:00;;;;;;;10.00;1.50;;;;;;;16.03;100.00;94064.38;5003374;28;20026;-92
2023/05/02 05:41:25;;;;;;;1.15;0.93;;;;;;;16.02;100.00;94062.03;5003343;28;20124;-91
2023/05/02 05:43:51;;;;;;;3.67;0.90;;;;;;;15.85;100.00;94060.91;5003141;28;20051;-92
2023/05/02 05:46:16;;;;;;;2.40;1.42;;;;;;;15.61;100.00;94069.22;5003450;28;20070;-93
2023/05/02 05:48:41;;;;;;;1.83;1.17;;;;;;;16.19;100.00;94062.06;5003313;28;20025;-93
2023/05/02 05:51:07;;;;;;;2.72;1.25;;;;;;;15.89;100.00;94053.94;5003130;28;20500;-92
2023/05/02 05:53:32;;;;;;;1.38;1.13;;;;;;;16.49;100.00;94066.75;5019338;28;20025;-93
2023/05/02 05:55:58;;;;;;;2.95;1.52;;;;;;;16.29;100.00;94087.44;5003241;28;20063;-92
2023/05/02 05:58:23;;;;;;;1.80;0.88;;;;;;;16.15;100.00;94082.25;5003249;28;20036;-92
2023/05/02 06:00:49;;;;;;;1.38;1.02;;;;;;;15.28;100.00;94083.53;5003477;28;20505;-93
2023/05/02 06:03:15;;;;;;;3.28;1.00;;;;;;;15.92;100.00;94087.69;5003071;28;20124;-92
2023/05/02 06:05:41;;;;;;;5.43;1.20;;;;;;;15.88;100.00;94091.97;5002936;28;20430;-93
2023/05/02 06:08:06;;;;;;;1.40;1.00;;;;;;;16.08;100.00;94090.66;5003032;28;20120;-93
2023/05/02 06:10:32;;;;;;;3.35;1.13;;;;;;;16.13;100.00;94087.09;5003054;28;20021;-92
2023/05/02 06:12:57;;;;;;;2.33;0.98;;;;;;;16.18;100.00;94092.22;5005250;28;20312;-94
2023/05/02 06:15:23;;;;;;;2.03;0.88;;;;;;;15.90;100.00;94091.72;5006839;28;20025;-93
2023/05/02 06:17:50;;;;;;;1.60;1.00;;;;;;;16.40;100.00;94093.94;5006852;28;20032;-93
2023/05/02 06:20:16;;;;;;;5.72;1.38;;;;;;;16.00;100.00;94099.34;5006429;28;20036;-93
2023/05/02 06:22:41;;;;;;;3.58;1.40;;;;;;;16.12;100.00;94098.75;5006470;28;20025;-93
2023/05/02 06:25:07;;;;;;;1.58;1.25;;;;;;;17.03;100.00;94111.38;5006318;28;20037;-93
2023/05/02 06:27:33;;;;;;;4.47;2.15;;;;;;;16.72;100.00;94112.31;5006492;28;20025;-92
2023/05/02 06:29:59;;;;;;;2.00;1.65;;;;;;;16.31;100.00;94113.53;5006414;28;20083;-91
2023/05/02 06:32:25;;;;;;;2.28;1.65;;;;;;;16.59;100.00;94119.31;5006301;28;20029;-92
2023/05/02 06:34:50;;;;;;;2.08;1.60;;;;;;;16.29;100.00;94115.72;5006613;28;20083;-92
2023/05/02 06:37:16;;;;;;;2.28;1.88;;;;;;;16.27;100.00;94107.31;5006316;28;20017;-94
2023/05/02 06:39:41;;;;;;;2.38;1.73;;;;;;;16.80;100.00;94108.88;5006368;28;20083;-93
2023/05/02 06:42:06;;;;;;;2.80;1.48;;;;;;;16.13;100.00;94110.88;5006285;28;20095;-94
2023/05/02 06:44:32;;;;;;;2.38;1.70;;;;;;;16.23;100.00;94113.22;5006595;28;20025;-93
2023/05/02 06:46:57;;;;;;;4.82;1.90;;;;;;;16.14;100.00;94101.06;5022287;28;20025;-93
2023/05/02 06:49:23;;;;;;;2.40;1.60;;;;;;;16.48;100.00;94108.25;5006056;28;20033;-94
2023/05/02 06:51:48;;;;;;;1.85;1.30;;;;;;;16.61;100.00;94122.44;5006051;28;20142;-94
2023/05/02 06:54:14;;;;;;;10.70;1.50;;;;;;;15.74;100.00;94118.53;5006379;28;20088;-93
2023/05/02 06:56:40;;;;;;;2.50;1.50;;;;;;;16.45;100.00;94130.03;5006172;28;20021;-93
2023/05/02 06:59:06;;;;;;;2.67;1.80;;;;;;;16.32;100.00;94125.66;5006123;28;20075;-93
2023/05/02 07:01:31;;;;;;;5.38;2.10;;;;;;;16.19;100.00;94135.28;5005842;28;20025;-93
2023/05/02 07:03:57;;;;;;;2.65;1.67;;;;;;;16.17;100.00;94138.22;5006102;28;20032;-92
2023/05/02 07:06:23;;;;;;;3.20;2.20;;;;;;;16.37;100.00;94142.16;5005629;28;20029;-93
2023/05/02 07:08:48;;;;;;;2.67;1.85;;;;;;;16.62;100.00;94147.00;5005554;28;20026;-93
2023/05/02 07:11:14;;;;;;;2.35;2.08;;;;;;;16.50;100.00;94137.03;5005911;28;20431;-94
2023/05/02 07:13:39;;;;;;;2.33;2.00;;;;;;;16.00;100.00;94146.13;5005662;28;20091;-93
2023/05/02 07:16:05;;;;;;;2.20;1.90;;;;;;;15.97;100.00;94140.38;5021860;28;20021;-93
2023/05/02 07:18:31;;;;;;;2.88;2.28;;;;;;;16.18;100.00;94134.50;5021728;28;20036;-92
2023/05/02 07:20:56;;;;;;;3.47;2.17;;;;;;;16.28;100.00;94141.34;5005470;28;20029;-92
2023/05/02 07:23:22;;;;;;;3.03;2.17;;;;;;;16.44;100.00;94149.63;5005300;28;20067;-92
2023/05/02 07:25:47;;;;;;;2.58;1.80;;;;;;;15.46;100.00;94136.41;5005407;28;20128;-93
2023/05/02 07:28:13;;;;;;;2.53;1.90;;;;;;;15.16;100.00;94146.66;5005547;28;20080;-93
2023/05/02 07:30:38;;;;;;;4.55;2.08;;;;;;;16.01;100.00;94148.47;5005314;28;20021;-92
2023/05/02 07:33:04;;;;;;;3.28;2.08;;;;;;;16.42;100.00;94148.38;5005482;28;20048;-93
2023/05/02 07:35:29;;;;;;;2.67;2.00;;;;;;;16.33;100.00;94153.66;5005408;28;20076;-93
2023/05/02 07:37:55;;;;;;;4.20;1.75;;;;;;;16.12;100.00;94164.81;5005197;28;20497;-93
2023/05/02 07:40:21;;;;;;;4.32;1.98;;;;;;;15.96;100.00;94156.53;5021290;28;20029;-93
2023/05/02 07:42:47;;;;;;;3.85;1.85;;;;;;;16.56;100.00;94172.81;5005052;28;20040;-93
2023/05/02 07:45:12;;;;;;;3.60;1.77;;;;;;;15.82;100.00;94160.03;5004900;28;20069;-94
2023/05/02 07:47:38;;;;;;;3.50;2.08;;;;;;;16.03;100.00;94164.00;5004974;28;20025;-93
2023/05/02 07:50:04;;;;;;;1.60;1.50;;;;;;;16.43;100.00;94187.75;5005054;28;20033;-93
2023/05/02 07:52:29;;;;;;;5.07;1.27;;;;;;;15.87;100.00;94168.91;5004990;28;20033;-93
2023/05/02 07:54:55;;;;;;;1.55;1.20;;;;;;;16.16;100.00;94181.59;5004881;28;20037;-92
2023/05/02 07:57:20;;;;;;;1.48;1.38;;;;;;;15.68;100.00;94175.19;5004899;28;20115;-93
2023/05/02 07:59:46;;;;;;;2.00;1.60;;;;;;;16.55;100.00;94189.78;5021292;28;20033;-93
2023/05/02 08:02:12;;;;;;;1.77;1.50;;;;;;;15.35;100.00;94176.28;5004888;28;20484;-93
2023/05/02 08:04:38;;;;;;;2.30;1.30;;;;;;;15.79;100.00;94170.44;5004853;28;20022;-94
2023/05/02 08:07:04;;;;;;;1.63;1.38;;;;;;;16.39;100.00;94179.63;5004747;28;20043;-93
2023/05/02 08:09:30;;;;;;;2.38;1.67;;;;;;;16.19;100.00;94183.63;5004744;28;20026;-94
2023/05/02 08:11:55;;;;;;;3.15;2.03;;;;;;;15.90;100.00;94190.22;5020833;28;20048;-93
2023/05/02 08:14:21;;;;;;;3.25;2.00;;;;;;;16.34;100.00;94192.22;5004637;28;20067;-92
2023/05/02 08:16:46;;;;;;;2.70;1.90;;;;;;;16.16;100.00;94188.78;5004400;28;20017;-93
2023/05/02 08:19:12;;;;;;;4.32;1.63;;;;;;;16.47;100.00;94190.56;5020567;28;20025;-92
2023/05/02 08:21:37;;;;;;;2.60;1.65;;;;;;;15.90;100.00;94190.22;5020518;28;20104;-95
2023/05/02 08:24:02;;;;;;;2.75;1.95;;;;;;;16.27;100.00;94199.84;5004440;28;20025;-93
2023/05/02 08:26:28;;;;;;;3.65;2.47;;;;;;;15.93;100.00;94194.13;5037831;28;20037;-94
2023/05/02 08:28:54;;;;;;;3.10;2.33;;;;;;;16.00;100.00;94191.03;5020356;28;20120;-92
2023/05/02 08:31:20;;;;;;;2.42;2.10;;;;;;;15.80;100.00;94185.97;5020273;28;20484;-93
2023/05/02 08:33:45;;;;;;;2.33;1.98;;;;;;;16.17;100.00;94191.09;5004168;28;20028;-93
2023/05/02 08:36:12;;;;;;;2.55;1.90;;;;;;;16.32;100.00;94197.03;5037290;28;20056;-93
2023/05/02 08:38:38;;;;;;;2.58;2.10;;;;;;;16.03;100.00;94193.84;5020513;28;20022;-93
2023/05/02 08:41:10;;;;;;;2.55;2.00;;;;;;;16.85;100.00;94203.19;5020109;28;20031;-93
2023/05/02 08:43:37;;;;;;;2.85;2.17;;;;;;;16.18;100.00;94197.16;5020272;28;20025;-94
2023/05/02 08:46:06;;;;;;;4.72;1.80;;;;;;;16.60;100.00;94205.50;5003907;28;20032;-92
2023/05/02 08:48:32;;;;;;;2.00;1.70;;;;;;;16.12;100.00;94215.03;5020381;28;20025;-94
2023/05/02 08:50:58;;;;;;;2.08;1.63;;;;;;;16.49;100.00;94210.28;5003939;28;20450;-93
2023/05/02 08:53:23;;;;;;;2.58;1.75;;;;;;;16.78;100.00;94205.53;5003961;28;20473;-93
2023/05/02 08:55:49;;;;;;;2.60;1.80;;;;;;;16.27;100.00;94213.06;5019901;28;20025;-92
2023/05/02 08:58:15;;;;;;;2.28;1.77;;;;;;;16.34;100.00;94223.94;5019850;28;20083;-93
2023/05/02 09:00:41;;;;;;;1.63;1.35;;;;;;;16.50;100.00;94235.69;5003687;28;20026;-93
2023/05/02 09:03:25;;;;;;;3.70;1.30;;;;;;;16.46;100.00;94226.78;5003450;28;20036;-94
2023/05/02 09:05:54;;;;;;;2.65;1.33;;;;;;;17.13;100.00;94231.25;5020119;28;20124;-94
2023/05/02 09:08:23;;;;;;;1.13;0.93;;;;;;;16.80;100.00;94233.22;5019976;28;20112;-94
2023/05/02 09:10:49;;;;;;;1.60;1.33;;;;;;;16.71;100.00;94244.88;5003582;28;20029;-94
2023/05/02 09:13:43;;;;;;;3.58;1.60;;;;;;;17.46;100.00;94242.13;5003632;28;20071;-94
2023/05/02 09:16:18;;;;;;;2.38;1.60;;;;;;;17.49;100.00;94249.44;5003549;28;20032;-94
2023/05/02 09:18:49;;;;;;;3.78;1.60;;;;;;;16.98;100.00;94250.97;5019684;28;20411;-94
2023/05/02 09:21:22;;;;;;;2.70;2.00;;;;;;;16.89;100.00;94235.88;5019717;28;20036;-92
2023/05/02 09:23:50;;;;;;;4.35;2.33;;;;;;;17.05;100.00;94252.09;5019793;28;20025;-92
2023/05/02 09:26:18;;;;;;;3.00;2.22;;;;;;;17.18;100.00;94254.91;5019401;28;20033;-93
2023/05/02 09:28:53;;;;;;;4.35;1.85;;;;;;;17.14;100.00;94251.31;5019857;28;20136;-94
2023/05/02 09:31:21;;;;;;;2.08;1.88;;;;;;;17.32;100.00;94260.06;5019656;28;20104;-92
2023/05/02 09:33:47;;;;;;;2.80;2.42;;;;;;;16.93;100.00;94254.56;5019550;28;20026;-93
2023/05/02 09:36:17;;;;;;;2.40;2.10;;;;;;;16.82;100.00;94260.16;5003318;28;20021;-93
2023/05/02 09:38:44;;;;;;;2.78;2.33;;;;;;;16.48;100.00;94260.84;5003593;28;20052;-93
2023/05/02 09:41:10;;;;;;;3.08;2.17;;;;;;;16.81;100.00;94255.16;5003324;28;20021;-93
2023/05/02 09:43:37;;;;;;;2.40;2.17;;;;;;;16.59;100.00;94256.06;5003298;28;20430;-94
2023/05/02 09:46:09;;;;;;;3.47;2.80;;;;;;;16.70;100.00;94257.31;5019478;28;20030;-94
2023/05/02 09:48:54;;;;;;;3.17;2.35;;;;;;;17.23;100.00;94262.72;5022540;28;20025;-93
2023/05/02 09:51:21;;;;;;;3.72;2.28;;;;;;;16.93;100.00;94257.97;5023262;28;20018;-93
2023/05/02 09:53:47;;;;;;;9.70;3.22;;;;;;;16.68;100.00;94262.91;5023383;28;20028;-94
2023/05/02 09:56:12;;;;;;;3.50;2.40;;;;;;;16.68;100.00;94259.50;5023357;28;20419;-92
2023/05/02 09:58:38;;;;;;;2.30;1.70;;;;;;;16.67;100.00;94263.25;5007121;28;20025;-93
2023/05/02 10:01:04;;;;;;;3.75;1.70;;;;;;;16.58;100.00;94260.59;5006949;28;20133;-93
2023/05/02 10:03:30;;;;;;;2.08;1.50;;;;;;;17.23;100.00;94262.72;5007167;28;20044;-93
2023/05/02 10:05:56;;;;;;;1.90;1.50;;;;;;;16.45;100.00;94272.06;5023296;28;20076;-94
2023/05/02 10:08:25;;;;;;;1.48;1.20;;;;;;;17.06;100.00;94266.13;5022913;28;20025;-92
2023/05/02 10:10:56;;;;;;;1.95;1.55;;;;;;;17.31;100.00;94264.56;5023046;28;20032;-93
2023/05/02 10:13:25;;;;;;;1.63;1.25;;;;;;;16.85;100.00;94265.91;5022975;28;20025;-93
2023/05/02 10:16:00;;;;;;;1.45;1.35;;;;;;;17.05;100.00;94259.28;5006856;28;20163;-93
2023/05/02 10:18:50;;;;;;;1.55;1.40;;;;;;;16.99;100.00;94265.75;5022848;28;20025;-93
2023/05/02 10:21:19;;;;;;;1.23;1.00;;;;;;;16.65;100.00;94260.13;5022888;28;20108;-91
2023/05/02 10:23:45;;;;;;;1.40;1.17;;;;;;;16.58;100.00;94265.88;5022753;28;20039;-93
2023/05/02 10:26:16;;;;;;;1.67;1.40;;;;;;;17.18;100.00;94276.09;5022445;28;20033;-92
2023/05/02 10:28:42;;;;;;;1.63;1.42;;;;;;;16.89;100.00;94272.13;5022716;28;20025;-93
2023/05/02 10:31:12;;;;;;;3.53;1.00;;;;;;;17.02;100.00;94273.91;5022463;28;20108;-91
2023/05/02 10:33:38;;;;;;;1.27;1.10;;;;;;;17.12;100.00;94272.81;5006490;28;20026;-93
2023/05/02 10:36:04;;;;;;;1.20;1.00;;;;;;;17.17;100.00;94277.16;5022574;28;20021;-93
2023/05/02 10:38:30;;;;;;;2.13;1.55;;;;;;;17.19;100.00;94275.00;5006346;28;20032;-93
2023/05/02 10:41:00;;;;;;;1.23;1.13;;;;;;;16.62;100.00;94276.59;5006316;28;20025;-93
2023/05/02 10:43:29;;;;;;;1.00;0.90;;;;;;;17.36;100.00;94271.56;5022262;28;20021;-94
2023/05/02 10:45:54;;;;;;;1.00;0.90;;;;;;;17.41;100.00;94284.66;5022293;28;20065;-92
2023/05/02 10:48:24;;;;;;;1.20;1.10;;;;;;;17.44;100.00;94281.41;5039934;28;20032;-93
2023/05/02 10:50:51;;;;;;;1.23;1.00;;;;;;;17.50;100.00;94277.47;5022342;28;20021;-94
2023/05/02 10:53:24;;;;;;;1.08;0.88;;;;;;;17.24;100.00;94264.25;5039700;28;20510;-92
2023/05/02 10:56:15;;;;;;;1.05;0.98;;;;;;;17.30;100.00;94280.78;5022153;28;20063;-92
2023/05/02 10:58:44;;;;;;;1.02;0.93;;;;;;;17.85;100.00;94268.69;5039208;28;20021;-94
2023/05/02 11:01:25;;;;;;;0.90;0.70;;;;;;;17.21;100.00;94273.59;5022295;28;20032;-93
2023/05/02 11:04:01;;;;;;;1.00;0.90;;;;;;;17.16;100.00;94273.75;5039550;28;20026;-92
2023/05/02 11:06:29;;;;;;;0.90;0.80;;;;;;;17.31;100.00;94280.44;5022125;28;20028;-94
2023/05/02 11:09:17;;;;;;;5.18;0.80;;;;;;;17.34;100.00;94276.41;5021985;28;20026;-93
2023/05/02 11:11:44;;;;;;;1.00;0.90;;;;;;;17.52;100.00;94279.81;5022091;28;20056;-93
2023/05/02 11:14:10;;;;;;;1.00;0.90;;;;;;;17.30;100.00;94275.47;5021842;28;20108;-94
2023/05/02 11:17:04;;;;;;;1.48;1.00;;;;;;;17.26;100.00;94280.63;5005610;28;20021;-92
2023/05/02 11:20:09;;;;;;;1.25;0.82;;;;;;;18.01;100.00;94289.41;5021749;28;20036;-93
2023/05/02 11:22:34;;;;;;;1.70;0.80;;;;;;;17.48;100.00;94279.66;5007592;28;20049;-92
2023/05/02 11:25:00;;;;;;;0.57;0.40;;;;;;;17.37;100.00;94289.00;5038885;28;20017;-92
2023/05/02 11:27:32;;;;;;;1.23;0.80;;;;;;;17.82;100.00;94293.19;5021188;28;20116;-92
2023/05/02 11:29:58;;;;;;;0.90;0.70;;;;;;;17.73;100.00;94295.06;5038770;28;20430;-93
2023/05/02 11:32:26;;;;;;;2.78;0.85;;;;;;;17.23;100.00;94291.81;5021116;28;20112;-91